sensor_id;sensor_type;location;lat;lon;timestamp;temperature;humidity
9768;DHT22;4923;52.520;13.494;2023-06-10T00:00:28;15.30;1.00
9768;DHT22;4923;52.520;13.494;2023-06-10T00:03:19;15.30;1.00
9768;DHT22;4923;52.520;13.494;2023-06-10T00:06:06;15.30;1.00
9768;DHT22;4923;52.520;13.494;2023-06-10T00:08:53;15.30;1.00
9768;DHT22;4923;52.520;13.494;2023-06-10T00:11:40;15.30;1.00
9768;DHT22;4923;52.520;13.494;2023-06-10T00:14:27;15.30;1.00
9768;DHT22;4923;52.520;13.494;2023-06-10T00:17:14;15.30;1.00
9768;DHT22;4923;52.520;13.494;2023-06-10T00:20:03;15.30;1.00
9768;DHT22;4923;52.520;13.494;2023-06-10T00:22:55;15.20;1.00
9768;DHT22;4923;52.520;13.494;2023-06-10T00:25:42;15.20;1.00
9768;DHT22;4923;52.520;13.494;2023-06-10T00:28:29;15.20;1.00
9768;DHT22;4923;52.520;13.494;2023-06-10T00:31:16;15.20;1.00
9768;DHT22;4923;52.520;13.494;2023-06-10T00:34:04;15.20;1.00
9768;DHT22;4923;52.520;13.494;2023-06-10T00:36:52;15.10;1.00
9768;DHT22;4923;52.520;13.494;2023-06-10T00:39:39;15.10;1.00
9768;DHT22;4923;52.520;13.494;2023-06-10T00:42:25;15.10;1.00
9768;DHT22;4923;52.520;13.494;2023-06-10T00:45:12;15.10;1.00
9768;DHT22;4923;52.520;13.494;2023-06-10T00:47:59;15.10;1.00
9768;DHT22;4923;52.520;13.494;2023-06-10T00:50:47;15.00;1.00
9768;DHT22;4923;52.520;13.494;2023-06-10T00:53:36;15.00;1.00
9768;DHT22;4923;52.520;13.494;2023-06-10T00:56:24;15.00;1.00
9768;DHT22;4923;52.520;13.494;2023-06-10T00:59:11;14.90;1.00
9768;DHT22;4923;52.520;13.494;2023-06-10T01:02:00;14.90;1.00
9768;DHT22;4923;52.520;13.494;2023-06-10T01:04:48;14.90;1.00
9768;DHT22;4923;52.520;13.494;2023-06-10T01:07:38;14.90;1.00
9768;DHT22;4923;52.520;13.494;2023-06-10T01:10:31;14.90;1.00
9768;DHT22;4923;52.520;13.494;2023-06-10T01:13:20;14.80;1.00
9768;DHT22;4923;52.520;13.494;2023-06-10T01:16:10;14.80;1.00
9768;DHT22;4923;52.520;13.494;2023-06-10T01:18:57;14.80;1.00
9768;DHT22;4923;52.520;13.494;2023-06-10T01:21:47;14.70;1.00
9768;DHT22;4923;52.520;13.494;2023-06-10T01:24:34;14.70;1.00
9768;DHT22;4923;52.520;13.494;2023-06-10T01:27:21;14.70;1.00
9768;DHT22;4923;52.520;13.494;2023-06-10T01:30:14;14.70;1.00
9768;DHT22;4923;52.520;13.494;2023-06-10T01:33:02;14.70;1.00
9768;DHT22;4923;52.520;13.494;2023-06-10T01:35:52;14.60;1.00
9768;DHT22;4923;52.520;13.494;2023-06-10T01:38:43;14.60;1.00
9768;DHT22;4923;52.520;13.494;2023-06-10T01:41:31;14.60;1.00
9768;DHT22;4923;52.520;13.494;2023-06-10T01:44:18;14.50;1.00
9768;DHT22;4923;52.520;13.494;2023-06-10T01:47:06;14.50;1.00
9768;DHT22;4923;52.520;13.494;2023-06-10T01:49:53;14.50;1.00
9768;DHT22;4923;52.520;13.494;2023-06-10T01:52:40;14.50;1.00
9768;DHT22;4923;52.520;13.494;2023-06-10T01:55:28;14.50;6.00
9768;DHT22;4923;52.520;13.494;2023-06-10T01:58:15;14.40;10.70
9768;DHT22;4923;52.520;13.494;2023-06-10T02:01:02;14.40;18.40
9768;DHT22;4923;52.520;13.494;2023-06-10T02:03:48;14.40;30.20
9768;DHT22;4923;52.520;13.494;2023-06-10T02:06:35;14.40;41.50
9768;DHT22;4923;52.520;13.494;2023-06-10T02:09:23;14.30;48.50
9768;DHT22;4923;52.520;13.494;2023-06-10T02:12:11;14.30;58.60
9768;DHT22;4923;52.520;13.494;2023-06-10T02:14:58;14.30;70.40
9768;DHT22;4923;52.520;13.494;2023-06-10T02:17:45;14.30;79.80
9768;DHT22;4923;52.520;13.494;2023-06-10T02:20:32;14.30;90.60
9768;DHT22;4923;52.520;13.494;2023-06-10T02:23:19;14.20;96.10
9768;DHT22;4923;52.520;13.494;2023-06-10T02:26:06;14.20;99.90
9768;DHT22;4923;52.520;13.494;2023-06-10T02:28:54;14.20;99.90
9768;DHT22;4923;52.520;13.494;2023-06-10T02:31:41;14.20;99.90
9768;DHT22;4923;52.520;13.494;2023-06-10T02:34:28;14.20;99.90
9768;DHT22;4923;52.520;13.494;2023-06-10T02:37:15;14.20;99.90
9768;DHT22;4923;52.520;13.494;2023-06-10T02:40:02;14.10;99.90
9768;DHT22;4923;52.520;13.494;2023-06-10T02:42:50;14.20;99.90
9768;DHT22;4923;52.520;13.494;2023-06-10T02:45:38;14.20;99.90
9768;DHT22;4923;52.520;13.494;2023-06-10T02:48:26;14.10;99.90
9768;DHT22;4923;52.520;13.494;2023-06-10T02:51:13;14.10;99.90
9768;DHT22;4923;52.520;13.494;2023-06-10T02:54:00;14.10;99.90
9768;DHT22;4923;52.520;13.494;2023-06-10T02:56:47;14.10;99.90
9768;DHT22;4923;52.520;13.494;2023-06-10T02:59:34;14.10;99.90
9768;DHT22;4923;52.520;13.494;2023-06-10T03:02:22;14.10;99.90
9768;DHT22;4923;52.520;13.494;2023-06-10T03:05:14;14.10;99.90
9768;DHT22;4923;52.520;13.494;2023-06-10T03:08:02;14.10;99.90
9768;DHT22;4923;52.520;13.494;2023-06-10T03:10:49;14.10;99.90
9768;DHT22;4923;52.520;13.494;2023-06-10T03:13:38;14.10;99.90
9768;DHT22;4923;52.520;13.494;2023-06-10T03:16:25;14.10;99.90
9768;DHT22;4923;52.520;13.494;2023-06-10T03:19:14;14.10;99.90
9768;DHT22;4923;52.520;13.494;2023-06-10T03:22:07;14.10;99.90
9768;DHT22;4923;52.520;13.494;2023-06-10T03:24:55;14.20;99.90
9768;DHT22;4923;52.520;13.494;2023-06-10T03:27:43;14.20;99.90
9768;DHT22;4923;52.520;13.494;2023-06-10T03:30:30;14.20;99.90
9768;DHT22;4923;52.520;13.494;2023-06-10T03:33:16;14.20;99.90
9768;DHT22;4923;52.520;13.494;2023-06-10T03:36:05;14.30;99.90
9768;DHT22;4923;52.520;13.494;2023-06-10T03:38:52;14.20;99.90
9768;DHT22;4923;52.520;13.494;2023-06-10T03:41:42;14.20;99.90
9768;DHT22;4923;52.520;13.494;2023-06-10T03:44:29;14.30;99.90
9768;DHT22;4923;52.520;13.494;2023-06-10T03:47:16;14.20;99.90
9768;DHT22;4923;52.520;13.494;2023-06-10T03:50:03;14.30;99.90
9768;DHT22;4923;52.520;13.494;2023-06-10T03:52:52;14.30;99.90
9768;DHT22;4923;52.520;13.494;2023-06-10T03:55:39;14.30;99.90
9768;DHT22;4923;52.520;13.494;2023-06-10T03:58:26;14.40;99.90
9768;DHT22;4923;52.520;13.494;2023-06-10T04:01:13;14.40;99.90
9768;DHT22;4923;52.520;13.494;2023-06-10T04:04:00;14.40;99.90
9768;DHT22;4923;52.520;13.494;2023-06-10T04:06:47;14.50;99.90
9768;DHT22;4923;52.520;13.494;2023-06-10T04:09:36;14.50;99.90
9768;DHT22;4923;52.520;13.494;2023-06-10T04:12:23;14.60;99.90
9768;DHT22;4923;52.520;13.494;2023-06-10T04:15:10;14.70;99.90
9768;DHT22;4923;52.520;13.494;2023-06-10T04:17:58;14.90;99.90
9768;DHT22;4923;52.520;13.494;2023-06-10T04:20:45;15.00;97.00
9768;DHT22;4923;52.520;13.494;2023-06-10T04:23:32;15.00;56.50
9768;DHT22;4923;52.520;13.494;2023-06-10T04:26:20;15.00;20.60
9768;DHT22;4923;52.520;13.494;2023-06-10T04:29:07;15.00;6.70
9768;DHT22;4923;52.520;13.494;2023-06-10T04:31:54;15.20;1.00
9768;DHT22;4923;52.520;13.494;2023-06-10T04:34:41;15.20;1.00
9768;DHT22;4923;52.520;13.494;2023-06-10T04:37:28;15.10;1.00
9768;DHT22;4923;52.520;13.494;2023-06-10T04:40:15;15.20;1.00
9768;DHT22;4923;52.520;13.494;2023-06-10T04:43:03;15.30;1.00
9768;DHT22;4923;52.520;13.494;2023-06-10T04:45:50;15.50;1.00
9768;DHT22;4923;52.520;13.494;2023-06-10T04:48:37;15.80;1.00
9768;DHT22;4923;52.520;13.494;2023-06-10T04:51:24;16.20;1.00
9768;DHT22;4923;52.520;13.494;2023-06-10T04:54:11;16.70;1.00
9768;DHT22;4923;52.520;13.494;2023-06-10T04:56:58;16.80;1.00
9768;DHT22;4923;52.520;13.494;2023-06-10T04:59:47;17.10;1.00
9768;DHT22;4923;52.520;13.494;2023-06-10T05:02:34;17.30;1.00
9768;DHT22;4923;52.520;13.494;2023-06-10T05:05:20;17.50;1.00
9768;DHT22;4923;52.520;13.494;2023-06-10T05:08:07;18.00;1.00
9768;DHT22;4923;52.520;13.494;2023-06-10T05:10:54;18.20;1.00
9768;DHT22;4923;52.520;13.494;2023-06-10T05:13:41;18.00;1.00
9768;DHT22;4923;52.520;13.494;2023-06-10T05:16:31;18.10;1.00
9768;DHT22;4923;52.520;13.494;2023-06-10T05:19:17;18.30;1.00
9768;DHT22;4923;52.520;13.494;2023-06-10T05:22:05;18.60;1.00
9768;DHT22;4923;52.520;13.494;2023-06-10T05:24:51;18.80;1.00
9768;DHT22;4923;52.520;13.494;2023-06-10T05:27:38;18.50;1.00
9768;DHT22;4923;52.520;13.494;2023-06-10T05:30:27;18.90;1.00
9768;DHT22;4923;52.520;13.494;2023-06-10T05:33:15;19.60;1.00
9768;DHT22;4923;52.520;13.494;2023-06-10T05:36:03;19.60;1.00
9768;DHT22;4923;52.520;13.494;2023-06-10T05:38:49;19.40;1.00
9768;DHT22;4923;52.520;13.494;2023-06-10T05:41:36;19.30;1.00
9768;DHT22;4923;52.520;13.494;2023-06-10T05:44:23;19.60;1.00
9768;DHT22;4923;52.520;13.494;2023-06-10T05:47:10;20.00;1.00
9768;DHT22;4923;52.520;13.494;2023-06-10T05:49:58;20.00;1.00
9768;DHT22;4923;52.520;13.494;2023-06-10T05:52:45;20.00;1.00
9768;DHT22;4923;52.520;13.494;2023-06-10T05:55:32;20.00;1.00
9768;DHT22;4923;52.520;13.494;2023-06-10T05:58:20;20.00;1.00
9768;DHT22;4923;52.520;13.494;2023-06-10T06:01:06;20.00;1.00
9768;DHT22;4923;52.520;13.494;2023-06-10T06:03:53;20.00;1.00
9768;DHT22;4923;52.520;13.494;2023-06-10T06:06:42;19.70;1.00
9768;DHT22;4923;52.520;13.494;2023-06-10T06:09:29;19.90;1.00
9768;DHT22;4923;52.520;13.494;2023-06-10T06:12:15;19.90;1.00
9768;DHT22;4923;52.520;13.494;2023-06-10T06:15:03;20.00;1.00
9768;DHT22;4923;52.520;13.494;2023-06-10T06:17:50;20.00;1.00
9768;DHT22;4923;52.520;13.494;2023-06-10T06:20:38;20.20;1.00
9768;DHT22;4923;52.520;13.494;2023-06-10T06:23:27;20.20;1.00
9768;DHT22;4923;52.520;13.494;2023-06-10T06:26:14;20.20;1.00
9768;DHT22;4923;52.520;13.494;2023-06-10T06:29:00;20.30;1.00
9768;DHT22;4923;52.520;13.494;2023-06-10T06:31:47;20.40;1.00
9768;DHT22;4923;52.520;13.494;2023-06-10T06:34:34;20.30;1.00
9768;DHT22;4923;52.520;13.494;2023-06-10T06:37:21;20.20;1.00
9768;DHT22;4923;52.520;13.494;2023-06-10T06:40:11;20.40;1.00
9768;DHT22;4923;52.520;13.494;2023-06-10T06:42:58;20.70;1.00
9768;DHT22;4923;52.520;13.494;2023-06-10T06:45:46;20.80;1.00
9768;DHT22;4923;52.520;13.494;2023-06-10T06:48:32;20.70;1.00
9768;DHT22;4923;52.520;13.494;2023-06-10T06:51:19;20.70;1.00
9768;DHT22;4923;52.520;13.494;2023-06-10T06:54:06;20.80;1.00
9768;DHT22;4923;52.520;13.494;2023-06-10T06:56:54;20.90;1.00
9768;DHT22;4923;52.520;13.494;2023-06-10T06:59:41;21.10;1.00
9768;DHT22;4923;52.520;13.494;2023-06-10T07:02:28;21.30;1.00
9768;DHT22;4923;52.520;13.494;2023-06-10T07:05:15;21.70;1.00
9768;DHT22;4923;52.520;13.494;2023-06-10T07:08:02;21.90;1.00
9768;DHT22;4923;52.520;13.494;2023-06-10T07:10:49;21.90;1.00
9768;DHT22;4923;52.520;13.494;2023-06-10T07:13:37;21.90;1.00
9768;DHT22;4923;52.520;13.494;2023-06-10T07:16:24;22.10;1.00
9768;DHT22;4923;52.520;13.494;2023-06-10T07:19:10;22.30;1.00
9768;DHT22;4923;52.520;13.494;2023-06-10T07:21:57;22.90;1.00
9768;DHT22;4923;52.520;13.494;2023-06-10T07:24:44;23.10;1.00
9768;DHT22;4923;52.520;13.494;2023-06-10T07:27:31;22.80;1.00
9768;DHT22;4923;52.520;13.494;2023-06-10T07:30:19;22.80;1.00
9768;DHT22;4923;52.520;13.494;2023-06-10T07:33:06;22.80;1.00
9768;DHT22;4923;52.520;13.494;2023-06-10T07:35:53;23.30;1.00
9768;DHT22;4923;52.520;13.494;2023-06-10T07:38:40;22.60;1.00
9768;DHT22;4923;52.520;13.494;2023-06-10T07:41:27;22.60;1.00
9768;DHT22;4923;52.520;13.494;2023-06-10T07:44:14;22.50;1.00
9768;DHT22;4923;52.520;13.494;2023-06-10T07:47:03;21.80;1.00
9768;DHT22;4923;52.520;13.494;2023-06-10T07:49:50;22.20;1.00
9768;DHT22;4923;52.520;13.494;2023-06-10T07:52:37;22.10;1.00
9768;DHT22;4923;52.520;13.494;2023-06-10T07:55:24;22.50;1.00
9768;DHT22;4923;52.520;13.494;2023-06-10T07:58:11;22.90;1.00
9768;DHT22;4923;52.520;13.494;2023-06-10T08:00:58;22.60;1.00
9768;DHT22;4923;52.520;13.494;2023-06-10T08:03:46;23.10;1.00
9768;DHT22;4923;52.520;13.494;2023-06-10T08:06:33;23.50;1.00
9768;DHT22;4923;52.520;13.494;2023-06-10T08:09:20;23.30;1.00
9768;DHT22;4923;52.520;13.494;2023-06-10T08:12:09;23.40;1.00
9768;DHT22;4923;52.520;13.494;2023-06-10T08:14:55;23.60;1.00
9768;DHT22;4923;52.520;13.494;2023-06-10T08:17:42;23.80;1.00
9768;DHT22;4923;52.520;13.494;2023-06-10T08:20:31;24.00;1.00
9768;DHT22;4923;52.520;13.494;2023-06-10T08:23:18;24.30;1.00
9768;DHT22;4923;52.520;13.494;2023-06-10T08:26:05;24.30;1.00
9768;DHT22;4923;52.520;13.494;2023-06-10T08:28:52;24.70;1.00
9768;DHT22;4923;52.520;13.494;2023-06-10T08:31:41;24.80;1.00
9768;DHT22;4923;52.520;13.494;2023-06-10T08:34:29;24.90;1.00
9768;DHT22;4923;52.520;13.494;2023-06-10T08:37:17;25.00;1.00
9768;DHT22;4923;52.520;13.494;2023-06-10T08:40:05;25.10;1.00
9768;DHT22;4923;52.520;13.494;2023-06-10T08:43:00;24.80;1.00
9768;DHT22;4923;52.520;13.494;2023-06-10T08:45:48;25.40;1.00
9768;DHT22;4923;52.520;13.494;2023-06-10T08:48:38;25.30;1.00
9768;DHT22;4923;52.520;13.494;2023-06-10T08:51:29;25.70;1.00
9768;DHT22;4923;52.520;13.494;2023-06-10T08:54:21;25.00;1.00
9768;DHT22;4923;52.520;13.494;2023-06-10T08:57:12;24.90;1.00
9768;DHT22;4923;52.520;13.494;2023-06-10T09:00:00;24.60;1.00
9768;DHT22;4923;52.520;13.494;2023-06-10T09:02:47;24.50;1.00
9768;DHT22;4923;52.520;13.494;2023-06-10T09:05:34;24.50;1.00
9768;DHT22;4923;52.520;13.494;2023-06-10T09:08:22;24.60;1.00
9768;DHT22;4923;52.520;13.494;2023-06-10T09:11:10;24.80;1.00
9768;DHT22;4923;52.520;13.494;2023-06-10T09:13:57;24.50;1.00
9768;DHT22;4923;52.520;13.494;2023-06-10T09:16:44;24.50;1.00
9768;DHT22;4923;52.520;13.494;2023-06-10T09:19:32;23.70;1.00
9768;DHT22;4923;52.520;13.494;2023-06-10T09:22:19;24.10;1.00
9768;DHT22;4923;52.520;13.494;2023-06-10T09:25:08;24.00;1.00
9768;DHT22;4923;52.520;13.494;2023-06-10T09:27:56;23.70;1.00
9768;DHT22;4923;52.520;13.494;2023-06-10T09:30:43;23.40;1.00
9768;DHT22;4923;52.520;13.494;2023-06-10T09:33:31;23.10;1.00
9768;DHT22;4923;52.520;13.494;2023-06-10T09:36:22;23.60;1.00
9768;DHT22;4923;52.520;13.494;2023-06-10T09:39:14;23.40;1.00
9768;DHT22;4923;52.520;13.494;2023-06-10T09:42:01;23.50;1.00
9768;DHT22;4923;52.520;13.494;2023-06-10T09:44:52;23.00;1.00
9768;DHT22;4923;52.520;13.494;2023-06-10T09:47:39;23.10;1.00
9768;DHT22;4923;52.520;13.494;2023-06-10T09:50:27;22.90;1.00
9768;DHT22;4923;52.520;13.494;2023-06-10T09:53:14;22.80;1.00
9768;DHT22;4923;52.520;13.494;2023-06-10T09:56:04;23.00;1.00
9768;DHT22;4923;52.520;13.494;2023-06-10T09:58:53;23.10;1.00
9768;DHT22;4923;52.520;13.494;2023-06-10T10:01:41;23.30;1.00
9768;DHT22;4923;52.520;13.494;2023-06-10T10:04:28;23.50;1.00
9768;DHT22;4923;52.520;13.494;2023-06-10T10:07:15;23.70;1.00
9768;DHT22;4923;52.520;13.494;2023-06-10T10:10:02;23.80;1.00
9768;DHT22;4923;52.520;13.494;2023-06-10T10:12:52;23.90;1.00
9768;DHT22;4923;52.520;13.494;2023-06-10T10:15:41;24.00;1.00
9768;DHT22;4923;52.520;13.494;2023-06-10T10:18:32;24.00;1.00
9768;DHT22;4923;52.520;13.494;2023-06-10T10:21:22;24.10;1.00
9768;DHT22;4923;52.520;13.494;2023-06-10T10:24:15;24.00;99.90
9768;DHT22;4923;52.520;13.494;2023-06-10T10:27:09;24.00;99.90
9768;DHT22;4923;52.520;13.494;2023-06-10T10:29:58;23.90;99.90
9768;DHT22;4923;52.520;13.494;2023-06-10T10:32:57;23.90;99.90
9768;DHT22;4923;52.520;13.494;2023-06-10T10:35:47;23.80;99.90
9768;DHT22;4923;52.520;13.494;2023-06-10T10:38:34;24.00;99.90
9768;DHT22;4923;52.520;13.494;2023-06-10T10:41:23;24.40;99.90
9768;DHT22;4923;52.520;13.494;2023-06-10T10:44:12;24.30;99.90
9768;DHT22;4923;52.520;13.494;2023-06-10T10:47:02;24.40;99.90
9768;DHT22;4923;52.520;13.494;2023-06-10T10:49:51;24.30;99.90
9768;DHT22;4923;52.520;13.494;2023-06-10T10:52:54;24.30;99.90
9768;DHT22;4923;52.520;13.494;2023-06-10T10:55:41;24.40;99.90
9768;DHT22;4923;52.520;13.494;2023-06-10T10:58:28;24.60;99.90
9768;DHT22;4923;52.520;13.494;2023-06-10T11:01:15;24.70;99.90
9768;DHT22;4923;52.520;13.494;2023-06-10T11:04:06;24.40;99.90
9768;DHT22;4923;52.520;13.494;2023-06-10T11:06:54;24.80;99.90
9768;DHT22;4923;52.520;13.494;2023-06-10T11:09:57;24.90;99.90
9768;DHT22;4923;52.520;13.494;2023-06-10T11:12:50;25.20;99.90
9768;DHT22;4923;52.520;13.494;2023-06-10T11:15:40;25.50;99.90
9768;DHT22;4923;52.520;13.494;2023-06-10T11:18:29;25.80;99.90
9768;DHT22;4923;52.520;13.494;2023-06-10T11:21:18;26.10;99.90
9768;DHT22;4923;52.520;13.494;2023-06-10T11:24:11;26.20;99.90
9768;DHT22;4923;52.520;13.494;2023-06-10T11:27:16;26.70;99.90
9768;DHT22;4923;52.520;13.494;2023-06-10T11:30:18;26.90;99.90
9768;DHT22;4923;52.520;13.494;2023-06-10T11:33:06;26.70;99.90
9768;DHT22;4923;52.520;13.494;2023-06-10T11:35:53;26.40;99.90
9768;DHT22;4923;52.520;13.494;2023-06-10T11:38:41;26.30;99.90
9768;DHT22;4923;52.520;13.494;2023-06-10T11:41:28;26.10;99.90
9768;DHT22;4923;52.520;13.494;2023-06-10T11:44:17;26.20;99.90
9768;DHT22;4923;52.520;13.494;2023-06-10T11:47:05;26.00;99.90
9768;DHT22;4923;52.520;13.494;2023-06-10T11:49:56;25.80;99.90
9768;DHT22;4923;52.520;13.494;2023-06-10T11:52:43;26.00;99.90
9768;DHT22;4923;52.520;13.494;2023-06-10T11:55:41;25.80;99.90
9768;DHT22;4923;52.520;13.494;2023-06-10T11:58:28;25.80;99.90
9768;DHT22;4923;52.520;13.494;2023-06-10T12:01:21;25.70;99.90
9768;DHT22;4923;52.520;13.494;2023-06-10T12:04:09;25.70;99.90
9768;DHT22;4923;52.520;13.494;2023-06-10T12:06:56;25.70;99.90
9768;DHT22;4923;52.520;13.494;2023-06-10T12:09:43;25.90;99.90
9768;DHT22;4923;52.520;13.494;2023-06-10T12:12:30;26.00;99.90
9768;DHT22;4923;52.520;13.494;2023-06-10T12:15:23;26.20;99.90
9768;DHT22;4923;52.520;13.494;2023-06-10T12:18:17;26.40;99.90
9768;DHT22;4923;52.520;13.494;2023-06-10T12:21:18;26.40;99.90
9768;DHT22;4923;52.520;13.494;2023-06-10T12:24:07;26.50;99.90
9768;DHT22;4923;52.520;13.494;2023-06-10T12:26:55;26.80;99.90
9768;DHT22;4923;52.520;13.494;2023-06-10T12:29:51;26.80;99.90
9768;DHT22;4923;52.520;13.494;2023-06-10T12:32:41;27.20;99.90
9768;DHT22;4923;52.520;13.494;2023-06-10T12:35:30;27.30;99.90
9768;DHT22;4923;52.520;13.494;2023-06-10T12:38:21;27.00;99.90
9768;DHT22;4923;52.520;13.494;2023-06-10T12:41:09;27.10;99.90
9768;DHT22;4923;52.520;13.494;2023-06-10T12:43:57;27.30;99.90
9768;DHT22;4923;52.520;13.494;2023-06-10T12:46:44;27.50;99.90
9768;DHT22;4923;52.520;13.494;2023-06-10T12:49:31;27.30;99.90
9768;DHT22;4923;52.520;13.494;2023-06-10T12:52:19;27.20;99.90
9768;DHT22;4923;52.520;13.494;2023-06-10T12:55:07;27.30;99.90
9768;DHT22;4923;52.520;13.494;2023-06-10T12:57:54;27.50;99.90
9768;DHT22;4923;52.520;13.494;2023-06-10T13:00:42;27.50;99.90
9768;DHT22;4923;52.520;13.494;2023-06-10T13:03:29;27.40;99.90
9768;DHT22;4923;52.520;13.494;2023-06-10T13:06:15;27.50;99.90
9768;DHT22;4923;52.520;13.494;2023-06-10T13:09:05;27.50;99.90
9768;DHT22;4923;52.520;13.494;2023-06-10T13:11:52;27.80;99.90
9768;DHT22;4923;52.520;13.494;2023-06-10T13:14:39;28.10;99.90
9768;DHT22;4923;52.520;13.494;2023-06-10T13:17:26;28.00;99.90
9768;DHT22;4923;52.520;13.494;2023-06-10T13:20:13;28.20;99.90
9768;DHT22;4923;52.520;13.494;2023-06-10T13:22:59;27.90;99.90
9768;DHT22;4923;52.520;13.494;2023-06-10T13:25:48;27.90;99.90
9768;DHT22;4923;52.520;13.494;2023-06-10T13:28:35;27.70;99.90
9768;DHT22;4923;52.520;13.494;2023-06-10T13:31:22;27.50;99.90
9768;DHT22;4923;52.520;13.494;2023-06-10T13:34:09;27.30;99.90
9768;DHT22;4923;52.520;13.494;2023-06-10T13:36:56;27.60;99.90
9768;DHT22;4923;52.520;13.494;2023-06-10T13:39:44;28.20;99.90
9768;DHT22;4923;52.520;13.494;2023-06-10T13:42:34;28.00;99.90
9768;DHT22;4923;52.520;13.494;2023-06-10T13:45:21;27.70;99.90
9768;DHT22;4923;52.520;13.494;2023-06-10T13:48:08;27.60;99.90
9768;DHT22;4923;52.520;13.494;2023-06-10T13:50:55;27.50;99.90
9768;DHT22;4923;52.520;13.494;2023-06-10T13:53:42;27.50;99.90
9768;DHT22;4923;52.520;13.494;2023-06-10T13:56:29;27.70;99.90
9768;DHT22;4923;52.520;13.494;2023-06-10T13:59:18;27.70;99.90
9768;DHT22;4923;52.520;13.494;2023-06-10T14:02:06;27.70;99.90
9768;DHT22;4923;52.520;13.494;2023-06-10T14:04:53;27.80;99.90
9768;DHT22;4923;52.520;13.494;2023-06-10T14:07:40;27.70;99.90
9768;DHT22;4923;52.520;13.494;2023-06-10T14:10:27;27.90;99.90
9768;DHT22;4923;52.520;13.494;2023-06-10T14:13:14;27.80;99.90
9768;DHT22;4923;52.520;13.494;2023-06-10T14:16:02;27.90;99.90
9768;DHT22;4923;52.520;13.494;2023-06-10T14:18:49;28.00;99.90
9768;DHT22;4923;52.520;13.494;2023-06-10T14:21:36;27.80;99.90
9768;DHT22;4923;52.520;13.494;2023-06-10T14:24:23;27.90;99.90
9768;DHT22;4923;52.520;13.494;2023-06-10T14:27:10;27.90;99.90
9768;DHT22;4923;52.520;13.494;2023-06-10T14:29:57;27.80;99.90
9768;DHT22;4923;52.520;13.494;2023-06-10T14:32:45;27.90;99.90
9768;DHT22;4923;52.520;13.494;2023-06-10T14:35:32;27.90;99.90
9768;DHT22;4923;52.520;13.494;2023-06-10T14:38:19;27.80;99.90
9768;DHT22;4923;52.520;13.494;2023-06-10T14:41:06;27.90;99.90
9768;DHT22;4923;52.520;13.494;2023-06-10T14:43:52;28.00;99.90
9768;DHT22;4923;52.520;13.494;2023-06-10T14:46:39;28.00;99.90
9768;DHT22;4923;52.520;13.494;2023-06-10T14:49:27;28.10;99.90
9768;DHT22;4923;52.520;13.494;2023-06-10T14:52:14;28.10;99.90
9768;DHT22;4923;52.520;13.494;2023-06-10T14:55:01;28.10;99.90
9768;DHT22;4923;52.520;13.494;2023-06-10T14:57:48;28.10;99.90
9768;DHT22;4923;52.520;13.494;2023-06-10T15:00:35;28.40;99.90
9768;DHT22;4923;52.520;13.494;2023-06-10T15:03:22;28.20;99.90
9768;DHT22;4923;52.520;13.494;2023-06-10T15:06:10;28.30;99.90
9768;DHT22;4923;52.520;13.494;2023-06-10T15:08:57;28.30;99.90
9768;DHT22;4923;52.520;13.494;2023-06-10T15:11:44;28.50;99.90
9768;DHT22;4923;52.520;13.494;2023-06-10T15:14:31;28.50;99.90
9768;DHT22;4923;52.520;13.494;2023-06-10T15:17:18;28.80;99.90
9768;DHT22;4923;52.520;13.494;2023-06-10T15:20:05;28.80;99.90
9768;DHT22;4923;52.520;13.494;2023-06-10T15:22:54;28.70;99.90
9768;DHT22;4923;52.520;13.494;2023-06-10T15:25:41;28.60;99.90
9768;DHT22;4923;52.520;13.494;2023-06-10T15:28:28;28.70;99.90
9768;DHT22;4923;52.520;13.494;2023-06-10T15:31:15;28.90;99.90
9768;DHT22;4923;52.520;13.494;2023-06-10T15:34:02;28.80;99.90
9768;DHT22;4923;52.520;13.494;2023-06-10T15:36:49;28.90;99.90
9768;DHT22;4923;52.520;13.494;2023-06-10T15:39:37;28.90;99.90
9768;DHT22;4923;52.520;13.494;2023-06-10T15:42:24;28.90;99.90
9768;DHT22;4923;52.520;13.494;2023-06-10T15:45:11;28.80;99.90
9768;DHT22;4923;52.520;13.494;2023-06-10T15:47:58;28.70;99.90
9768;DHT22;4923;52.520;13.494;2023-06-10T15:50:45;28.60;99.90
9768;DHT22;4923;52.520;13.494;2023-06-10T15:53:31;28.40;99.90
9768;DHT22;4923;52.520;13.494;2023-06-10T15:56:20;28.30;99.90
9768;DHT22;4923;52.520;13.494;2023-06-10T15:59:06;28.20;99.90
9768;DHT22;4923;52.520;13.494;2023-06-10T16:01:54;28.10;99.90
9768;DHT22;4923;52.520;13.494;2023-06-10T16:04:41;28.10;99.90
9768;DHT22;4923;52.520;13.494;2023-06-10T16:07:28;28.10;99.90
9768;DHT22;4923;52.520;13.494;2023-06-10T16:10:15;28.20;99.90
9768;DHT22;4923;52.520;13.494;2023-06-10T16:13:03;28.20;99.90
9768;DHT22;4923;52.520;13.494;2023-06-10T16:15:50;28.10;99.90
9768;DHT22;4923;52.520;13.494;2023-06-10T16:18:36;28.00;99.90
9768;DHT22;4923;52.520;13.494;2023-06-10T16:21:23;28.00;99.90
9768;DHT22;4923;52.520;13.494;2023-06-10T16:24:10;28.00;99.90
9768;DHT22;4923;52.520;13.494;2023-06-10T16:26:57;28.10;99.90
9768;DHT22;4923;52.520;13.494;2023-06-10T16:29:45;28.10;99.90
9768;DHT22;4923;52.520;13.494;2023-06-10T16:32:32;28.20;99.90
9768;DHT22;4923;52.520;13.494;2023-06-10T16:35:19;28.20;99.90
9768;DHT22;4923;52.520;13.494;2023-06-10T16:38:06;28.10;99.90
9768;DHT22;4923;52.520;13.494;2023-06-10T16:40:53;28.00;99.90
9768;DHT22;4923;52.520;13.494;2023-06-10T16:43:40;28.10;99.90
9768;DHT22;4923;52.520;13.494;2023-06-10T16:46:28;28.10;99.90
9768;DHT22;4923;52.520;13.494;2023-06-10T16:49:15;28.30;99.90
9768;DHT22;4923;52.520;13.494;2023-06-10T16:52:02;28.70;99.90
9768;DHT22;4923;52.520;13.494;2023-06-10T16:54:50;29.30;99.90
9768;DHT22;4923;52.520;13.494;2023-06-10T16:57:37;30.10;99.90
9768;DHT22;4923;52.520;13.494;2023-06-10T17:00:24;30.80;99.90
9768;DHT22;4923;52.520;13.494;2023-06-10T17:03:12;31.40;99.90
9768;DHT22;4923;52.520;13.494;2023-06-10T17:06:00;31.60;99.90
9768;DHT22;4923;52.520;13.494;2023-06-10T17:08:46;31.50;99.90
9768;DHT22;4923;52.520;13.494;2023-06-10T17:11:33;31.20;99.90
9768;DHT22;4923;52.520;13.494;2023-06-10T17:14:20;31.10;99.90
9768;DHT22;4923;52.520;13.494;2023-06-10T17:17:09;31.60;99.90
9768;DHT22;4923;52.520;13.494;2023-06-10T17:19:57;31.80;99.90
9768;DHT22;4923;52.520;13.494;2023-06-10T17:22:44;31.90;99.90
9768;DHT22;4923;52.520;13.494;2023-06-10T17:25:31;32.00;99.90
9768;DHT22;4923;52.520;13.494;2023-06-10T17:28:20;32.50;99.90
9768;DHT22;4923;52.520;13.494;2023-06-10T17:31:07;32.50;99.90
9768;DHT22;4923;52.520;13.494;2023-06-10T17:33:53;32.70;99.90
9768;DHT22;4923;52.520;13.494;2023-06-10T17:36:42;32.60;99.90
9768;DHT22;4923;52.520;13.494;2023-06-10T17:39:29;32.90;99.90
9768;DHT22;4923;52.520;13.494;2023-06-10T17:42:16;32.30;99.90
9768;DHT22;4923;52.520;13.494;2023-06-10T17:45:03;32.60;99.90
9768;DHT22;4923;52.520;13.494;2023-06-10T17:47:50;32.80;99.90
9768;DHT22;4923;52.520;13.494;2023-06-10T17:50:37;32.80;99.90
9768;DHT22;4923;52.520;13.494;2023-06-10T17:53:25;32.80;99.90
9768;DHT22;4923;52.520;13.494;2023-06-10T17:56:12;32.70;99.90
9768;DHT22;4923;52.520;13.494;2023-06-10T17:58:59;32.50;99.90
9768;DHT22;4923;52.520;13.494;2023-06-10T18:01:46;32.30;99.90
9768;DHT22;4923;52.520;13.494;2023-06-10T18:04:33;32.50;99.90